Time;durP1;ratioP1;P1;durP2;ratioP2;P2;SDS_P1;SDS_P2;PMS_P1;PMS_P2;Temp;Humidity;BMP_temperature;BMP_pressure;BME280_temperature;BME280_humidity;BME280_pressure;Samples;Min_cycle;Max_cycle;Signal;HPM_P1;HPM_P2
2023/03/29 00:00:27;;;;;;;2.80;1.70;;;8.00;99.90;;;;;;5014663;28;20680;-40
2023/03/29 00:02:55;;;;;;;2.90;1.80;;;8.00;99.90;;;;;;4999777;28;20282;-39
2023/03/29 00:05:24;;;;;;;1.80;1.70;;;7.90;99.90;;;;;;4994818;28;20230;-43
2023/03/29 00:07:52;;;;;;;2.33;1.50;;;7.90;99.90;;;;;;4995035;28;20242;-41
2023/03/29 00:10:21;;;;;;;1.73;1.53;;;7.90;99.90;;;;;;5013547;28;20258;-43
2023/03/29 00:12:47;;;;;;;1.77;1.57;;;7.90;99.90;;;;;;5014172;28;20233;-39
2023/03/29 00:15:13;;;;;;;2.57;2.07;;;8.00;99.90;;;;;;4997996;28;20182;-42
2023/03/29 00:17:39;;;;;;;2.80;1.60;;;8.00;99.90;;;;;;4998146;28;20202;-44
2023/03/29 00:20:08;;;;;;;2.60;1.83;;;8.00;99.90;;;;;;5014126;28;20214;-43
2023/03/29 00:22:40;;;;;;;2.13;1.90;;;8.00;99.90;;;;;;5014438;28;20178;-44
2023/03/29 00:25:09;;;;;;;3.67;1.83;;;8.00;99.90;;;;;;5013886;28;20256;-40
2023/03/29 00:27:36;;;;;;;2.87;2.00;;;7.90;99.90;;;;;;4994105;28;20194;-39
2023/03/29 00:30:04;;;;;;;3.07;1.60;;;7.90;99.90;;;;;;5030232;28;20174;-40
2023/03/29 00:32:31;;;;;;;1.90;1.40;;;8.00;99.90;;;;;;5031764;28;20205;-41
2023/03/29 00:34:59;;;;;;;2.90;2.17;;;7.90;99.90;;;;;;5013924;28;20214;-44
2023/03/29 00:37:28;;;;;;;2.70;1.80;;;7.90;99.90;;;;;;5014075;28;20194;-40
2023/03/29 00:39:55;;;;;;;4.33;1.80;;;7.80;99.90;;;;;;5013322;28;20180;-40
2023/03/29 00:42:22;;;;;;;1.73;1.50;;;7.70;99.90;;;;;;5031855;28;20269;-40
2023/03/29 00:44:54;;;;;;;1.73;1.63;;;7.60;99.90;;;;;;4997089;28;20691;-40
2023/03/29 00:47:30;;;;;;;2.30;1.67;;;7.60;99.90;;;;;;5029974;28;20209;-42
2023/03/29 00:50:01;;;;;;;2.90;1.60;;;7.60;99.90;;;;;;5031632;28;20270;-42
2023/03/29 00:52:30;;;;;;;2.50;1.63;;;7.60;99.90;;;;;;5032995;28;20174;-39
2023/03/29 00:55:00;;;;;;;2.87;1.70;;;7.60;99.90;;;;;;5013517;28;20179;-42
2023/03/29 00:57:28;;;;;;;2.30;1.70;;;7.60;99.90;;;;;;5030518;28;20205;-40
2023/03/29 00:59:55;;;;;;;2.37;2.00;;;7.60;99.90;;;;;;5013387;28;20190;-42
2023/03/29 01:02:24;;;;;;;2.13;1.70;;;7.50;99.90;;;;;;5013768;28;20177;-40
2023/03/29 01:05:13;;;;;;;2.20;2.00;;;7.40;99.90;;;;;;4996897;28;20664;-42
2023/03/29 01:07:39;;;;;;;2.80;2.03;;;7.30;99.90;;;;;;5013354;28;20240;-42
2023/03/29 01:10:16;;;;;;;3.30;2.37;;;7.30;99.90;;;;;;5013154;28;20198;-41
2023/03/29 01:12:47;;;;;;;2.83;2.17;;;7.30;99.90;;;;;;5013376;28;20185;-45
2023/03/29 01:15:18;;;;;;;2.10;1.90;;;7.40;99.90;;;;;;5014411;28;20267;-42
2023/03/29 01:17:49;;;;;;;2.23;1.83;;;7.40;99.90;;;;;;5029284;28;20226;-45
2023/03/29 01:20:32;;;;;;;3.00;1.80;;;7.40;99.90;;;;;;5029585;28;20250;-46
2023/03/29 01:23:30;;;;;;;2.30;2.00;;;7.50;99.90;;;;;;5013238;28;20181;-40
2023/03/29 01:26:05;;;;;;;2.63;2.20;;;7.40;99.90;;;;;;5013018;28;20231;-42
2023/03/29 01:28:48;;;;;;;3.93;2.00;;;7.30;99.90;;;;;;5029489;28;20295;-39
2023/03/29 01:31:21;;;;;;;2.43;2.23;;;7.30;99.90;;;;;;5013172;28;20173;-40
2023/03/29 01:33:52;;;;;;;3.17;2.00;;;7.30;99.90;;;;;;5013013;28;20262;-43
2023/03/29 01:36:30;;;;;;;2.20;2.00;;;7.30;99.90;;;;;;4993459;28;20237;-41
2023/03/29 01:39:04;;;;;;;2.77;2.00;;;7.20;99.90;;;;;;4993910;28;20203;-43
2023/03/29 01:41:38;;;;;;;2.33;2.13;;;7.20;99.90;;;;;;5019246;28;20174;-45
2023/03/29 01:44:16;;;;;;;2.43;1.90;;;7.20;99.90;;;;;;5013467;28;20227;-40
2023/03/29 01:46:51;;;;;;;3.43;1.93;;;7.20;99.90;;;;;;5019515;28;20181;-41
2023/03/29 01:49:31;;;;;;;2.83;2.13;;;7.20;99.90;;;;;;5050972;28;20176;-41
2023/03/29 01:52:02;;;;;;;2.20;1.77;;;7.30;99.90;;;;;;4997510;28;20277;-40
2023/03/29 01:54:35;;;;;;;2.97;1.83;;;7.30;99.90;;;;;;5015077;28;20194;-41
2023/03/29 01:57:04;;;;;;;3.60;2.00;;;7.30;99.90;;;;;;5017720;28;20235;-43
2023/03/29 01:59:34;;;;;;;3.33;2.20;;;7.30;99.90;;;;;;5016860;28;20225;-44
2023/03/29 02:02:07;;;;;;;2.43;2.23;;;7.40;99.90;;;;;;5016606;28;20185;-39
2023/03/29 02:04:39;;;;;;;2.63;2.40;;;7.30;99.90;;;;;;5016581;28;20248;-40
2023/03/29 02:09:44;;;;;;;4.07;2.73;;;7.30;99.90;;;;;;5063285;28;20216;-42
2023/03/29 02:12:11;;;;;;;3.43;2.90;;;7.30;99.90;;;;;;5022191;28;20243;-42
2023/03/29 02:14:37;;;;;;;2.67;2.30;;;7.30;99.90;;;;;;5053013;28;20209;-40
2023/03/29 02:17:15;;;;;;;3.73;2.67;;;7.30;99.90;;;;;;5054270;28;20177;-42
2023/03/29 02:19:42;;;;;;;3.70;2.20;;;7.30;99.90;;;;;;5016708;28;20178;-42
2023/03/29 02:22:11;;;;;;;3.23;2.13;;;7.30;99.90;;;;;;5014817;28;20179;-41
2023/03/29 02:24:43;;;;;;;3.13;2.10;;;7.30;99.90;;;;;;5005506;28;20240;-42
2023/03/29 02:27:09;;;;;;;2.93;2.10;;;7.30;99.90;;;;;;5013918;28;20279;-42
2023/03/29 02:29:35;;;;;;;3.17;2.47;;;7.30;99.90;;;;;;5015891;28;20190;-42
2023/03/29 02:32:56;;;;;;;2.63;2.33;;;7.20;99.90;;;;;;5016153;28;20186;-42
2023/03/29 02:35:33;;;;;;;2.50;2.30;;;7.30;99.90;;;;;;5009000;28;20194;-42
2023/03/29 02:38:01;;;;;;;2.57;2.20;;;7.30;99.90;;;;;;5032042;28;20194;-42
2023/03/29 02:40:27;;;;;;;2.57;2.10;;;7.30;99.90;;;;;;5016298;28;20182;-40
2023/03/29 02:42:54;;;;;;;2.83;2.20;;;7.30;99.90;;;;;;5015613;28;20171;-40
2023/03/29 02:45:22;;;;;;;3.50;2.27;;;7.30;99.90;;;;;;5031920;28;20226;-42
2023/03/29 02:47:54;;;;;;;6.60;2.50;;;7.30;99.90;;;;;;5028760;28;20217;-42
2023/03/29 02:50:24;;;;;;;3.17;2.10;;;7.30;99.90;;;;;;4999136;28;20175;-42
2023/03/29 02:52:58;;;;;;;3.53;2.40;;;7.40;99.90;;;;;;5032290;28;20174;-42
2023/03/29 02:55:30;;;;;;;2.60;2.07;;;7.40;99.90;;;;;;5015245;28;20729;-42
2023/03/29 02:57:56;;;;;;;3.43;2.10;;;7.40;99.90;;;;;;5012275;28;20675;-41
2023/03/29 03:00:22;;;;;;;2.37;1.90;;;7.40;99.90;;;;;;5013271;28;20197;-42
2023/03/29 03:02:50;;;;;;;1.97;1.87;;;7.40;99.90;;;;;;4987283;28;21481;-42
2023/03/29 03:05:16;;;;;;;2.33;1.80;;;7.40;99.90;;;;;;4998678;28;20288;-42
2023/03/29 03:07:42;;;;;;;2.70;2.20;;;7.40;99.90;;;;;;5012297;28;20253;-42
2023/03/29 03:10:09;;;;;;;3.50;2.27;;;7.40;99.90;;;;;;5014485;28;20260;-41
2023/03/29 03:12:36;;;;;;;2.93;2.20;;;7.30;99.90;;;;;;5028537;28;20174;-42
2023/03/29 03:15:04;;;;;;;2.43;2.23;;;7.30;99.90;;;;;;5031935;28;20273;-42
2023/03/29 03:17:32;;;;;;;2.73;2.20;;;7.30;99.90;;;;;;5012533;28;20213;-41
2023/03/29 03:19:58;;;;;;;3.17;2.07;;;7.30;99.90;;;;;;4996483;28;20202;-42
2023/03/29 03:22:26;;;;;;;3.27;2.33;;;7.20;99.90;;;;;;5015318;28;20272;-41
2023/03/29 03:24:52;;;;;;;2.50;2.20;;;7.20;99.90;;;;;;5013926;28;20356;-37
2023/03/29 03:27:18;;;;;;;2.87;2.20;;;7.20;99.90;;;;;;5013216;28;20188;-37
2023/03/29 03:29:44;;;;;;;3.37;2.00;;;7.20;99.90;;;;;;4998544;28;20178;-40
2023/03/29 03:32:28;;;;;;;3.37;2.20;;;7.20;99.90;;;;;;5017661;28;20224;-35
2023/03/29 03:35:33;;;;;;;3.20;2.30;;;7.30;99.90;;;;;;4990719;28;20274;-39
2023/03/29 03:37:59;;;;;;;4.10;2.10;;;7.30;99.90;;;;;;4974088;28;20216;-41
2023/03/29 03:40:25;;;;;;;4.13;2.00;;;7.30;99.90;;;;;;4985494;28;20253;-41
2023/03/29 03:42:52;;;;;;;2.67;2.17;;;7.30;99.90;;;;;;5010012;28;20241;-41
2023/03/29 03:45:18;;;;;;;4.03;2.70;;;7.40;99.90;;;;;;4998159;28;20279;-41
2023/03/29 03:47:52;;;;;;;3.43;2.13;;;7.40;99.90;;;;;;5010681;28;20209;-41
2023/03/29 03:50:38;;;;;;;2.63;2.20;;;7.40;99.90;;;;;;4995209;28;20183;-41
2023/03/29 03:53:04;;;;;;;2.10;1.80;;;7.40;99.90;;;;;;5007677;28;20171;-40
2023/03/29 03:55:52;;;;;;;2.10;1.93;;;7.40;99.90;;;;;;5004063;28;20269;-42
2023/03/29 03:58:23;;;;;;;2.17;1.83;;;7.40;99.90;;;;;;5023199;28;20202;-40
2023/03/29 04:00:50;;;;;;;5.27;2.43;;;7.30;99.90;;;;;;5027440;28;20174;-40
2023/03/29 04:03:31;;;;;;;3.83;2.47;;;7.40;99.90;;;;;;5015133;28;20185;-41
2023/03/29 04:06:02;;;;;;;2.93;2.03;;;7.30;99.90;;;;;;5012002;28;20210;-41
2023/03/29 04:08:38;;;;;;;5.83;3.50;;;7.20;99.90;;;;;;5029202;28;20225;-39
2023/03/29 04:11:27;;;;;;;2.50;2.20;;;7.20;99.90;;;;;;5026795;28;20186;-41
2023/03/29 04:13:53;;;;;;;2.30;1.90;;;7.20;99.90;;;;;;5014168;28;20192;-40
2023/03/29 04:16:43;;;;;;;4.73;2.17;;;7.10;99.90;;;;;;5013963;28;20171;-40
2023/03/29 04:19:29;;;;;;;3.63;2.00;;;7.10;99.90;;;;;;5032174;28;20210;-40
2023/03/29 04:21:56;;;;;;;2.00;1.80;;;7.10;99.90;;;;;;5031907;28;20174;-39
2023/03/29 04:24:23;;;;;;;2.10;1.90;;;7.10;99.90;;;;;;5015641;28;20205;-39
2023/03/29 04:27:08;;;;;;;3.10;1.63;;;7.20;99.90;;;;;;5018068;28;20316;-39
2023/03/29 04:29:35;;;;;;;1.40;1.13;;;7.20;99.90;;;;;;5015569;28;20658;-39
2023/03/29 04:32:13;;;;;;;2.13;1.10;;;7.30;99.90;;;;;;5015301;28;20174;-39
2023/03/29 04:34:49;;;;;;;2.00;1.17;;;7.30;99.90;;;;;;5015160;28;20177;-40
2023/03/29 04:37:20;;;;;;;2.07;1.43;;;7.30;99.90;;;;;;5031621;28;20209;-39
2023/03/29 04:39:48;;;;;;;3.43;1.30;;;7.40;99.90;;;;;;5015063;28;20194;-38
2023/03/29 04:42:14;;;;;;;1.80;1.40;;;7.50;99.90;;;;;;5031544;28;20178;-38
2023/03/29 04:44:42;;;;;;;4.23;1.37;;;7.50;99.90;;;;;;5014778;28;20202;-41
2023/03/29 04:47:13;;;;;;;2.10;1.67;;;7.60;99.90;;;;;;5031592;28;20171;-38
2023/03/29 04:49:50;;;;;;;4.60;1.90;;;7.60;99.90;;;;;;5032561;28;20181;-37
2023/03/29 04:52:23;;;;;;;2.27;1.50;;;7.60;99.90;;;;;;4999677;28;20254;-38
2023/03/29 04:54:49;;;;;;;3.87;1.40;;;7.70;99.90;;;;;;5014749;28;20218;-40
2023/03/29 04:57:23;;;;;;;3.03;1.73;;;7.80;99.90;;;;;;4999555;28;20182;-40
2023/03/29 05:00:01;;;;;;;4.07;1.40;;;7.80;99.90;;;;;;5027843;28;20181;-39
2023/03/29 05:02:46;;;;;;;4.43;1.57;;;7.90;99.90;;;;;;5014718;28;20244;-39
2023/03/29 05:05:13;;;;;;;2.57;1.27;;;7.90;99.90;;;;;;5013947;28;20201;-40
2023/03/29 05:07:39;;;;;;;4.00;1.50;;;8.00;99.90;;;;;;5011732;28;20195;-39
2023/03/29 05:10:07;;;;;;;1.77;1.43;;;8.00;99.90;;;;;;5014115;28;20186;-40
2023/03/29 05:12:33;;;;;;;3.70;1.60;;;8.00;99.90;;;;;;5031324;28;20179;-40
2023/03/29 05:14:59;;;;;;;3.60;1.60;;;8.00;99.90;;;;;;5031189;28;20214;-41
2023/03/29 05:17:27;;;;;;;2.00;1.37;;;7.90;99.90;;;;;;5014960;28;20213;-42
2023/03/29 05:19:55;;;;;;;1.90;1.70;;;7.90;99.90;;;;;;5030539;28;20250;-39
2023/03/29 05:22:23;;;;;;;2.37;1.30;;;7.90;99.90;;;;;;5030602;28;20698;-42
2023/03/29 05:24:51;;;;;;;1.87;1.40;;;7.90;99.90;;;;;;5011014;28;20370;-40
2023/03/29 05:27:21;;;;;;;1.70;1.60;;;7.90;99.90;;;;;;5028413;28;20267;-42
2023/03/29 05:30:00;;;;;;;3.13;1.90;;;7.90;99.90;;;;;;5030670;28;20204;-40
2023/03/29 05:32:37;;;;;;;3.57;1.83;;;7.90;99.90;;;;;;5031392;28;20167;-42
2023/03/29 05:35:04;;;;;;;4.90;1.77;;;7.90;99.90;;;;;;5014096;28;20221;-42
2023/03/29 05:37:33;;;;;;;3.17;1.60;;;7.90;99.90;;;;;;5014596;28;20616;-41
2023/03/29 05:40:00;;;;;;;7.07;1.80;;;7.90;99.90;;;;;;5031033;28;20180;-42
2023/03/29 05:42:31;;;;;;;2.63;1.87;;;7.90;99.90;;;;;;4995048;28;20186;-41
2023/03/29 05:45:03;;;;;;;4.97;1.63;;;7.90;99.90;;;;;;4995045;28;20195;-40
2023/03/29 05:47:29;;;;;;;2.43;1.70;;;7.90;99.90;;;;;;4994781;28;20226;-41
2023/03/29 05:49:56;;;;;;;5.30;3.77;;;8.00;99.90;;;;;;4994506;28;20217;-42
2023/03/29 05:52:23;;;;;;;3.53;3.23;;;8.00;99.90;;;;;;4994623;28;20175;-39
2023/03/29 05:54:50;;;;;;;4.70;2.27;;;8.00;99.90;;;;;;5024486;28;20178;-42
2023/03/29 05:57:17;;;;;;;4.50;1.97;;;8.10;99.90;;;;;;5029601;28;20256;-41
2023/03/29 05:59:44;;;;;;;3.77;2.37;;;8.10;99.90;;;;;;5020509;28;20182;-42
2023/03/29 06:02:14;;;;;;;4.93;2.27;;;8.10;99.90;;;;;;5030731;28;20189;-41
2023/03/29 06:04:44;;;;;;;4.27;2.20;;;8.10;99.90;;;;;;5047269;28;20206;-40
2023/03/29 06:07:22;;;;;;;2.90;2.17;;;8.20;99.90;;;;;;5031660;28;20224;-41
2023/03/29 06:10:08;;;;;;;3.83;2.07;;;8.20;99.90;;;;;;5031985;28;20165;-41
2023/03/29 06:12:35;;;;;;;4.63;2.60;;;8.20;99.90;;;;;;5030496;28;20175;-42
2023/03/29 06:15:03;;;;;;;8.27;4.07;;;8.30;99.90;;;;;;5039456;28;20175;-41
2023/03/29 06:17:56;;;;;;;5.63;3.60;;;8.30;99.90;;;;;;5030646;28;20214;-41
2023/03/29 06:20:22;;;;;;;6.17;3.00;;;8.30;99.90;;;;;;5014413;28;20190;-42
2023/03/29 06:22:53;;;;;;;7.10;3.50;;;8.40;99.90;;;;;;5013878;28;20181;-42
2023/03/29 06:25:19;;;;;;;4.67;2.63;;;8.40;99.90;;;;;;5013774;28;20305;-41
2023/03/29 06:27:47;;;;;;;6.37;2.60;;;8.40;99.90;;;;;;5010860;28;20195;-41
2023/03/29 06:30:15;;;;;;;4.83;2.50;;;8.40;99.90;;;;;;5011131;28;20171;-42
2023/03/29 06:32:45;;;;;;;4.50;2.90;;;8.40;99.90;;;;;;4994870;28;20168;-41
2023/03/29 06:35:47;;;;;;;3.80;2.60;;;8.50;99.90;;;;;;5018713;28;20217;-42
2023/03/29 06:38:16;;;;;;;4.73;2.97;;;8.50;99.90;;;;;;5011571;28;20199;-42
2023/03/29 06:41:06;;;;;;;3.67;2.97;;;8.50;99.90;;;;;;5000184;28;20190;-41
2023/03/29 06:44:10;;;;;;;4.13;2.97;;;8.60;99.90;;;;;;5025036;28;20188;-42
2023/03/29 06:46:50;;;;;;;4.40;2.77;;;8.60;99.90;;;;;;5033297;28;20173;-40
2023/03/29 06:49:16;;;;;;;4.07;2.73;;;8.60;99.90;;;;;;5001050;28;20249;-42
2023/03/29 06:52:12;;;;;;;4.10;2.67;;;8.70;99.90;;;;;;5017246;28;20198;-41
2023/03/29 06:54:38;;;;;;;4.23;2.83;;;8.80;99.90;;;;;;5033305;28;20192;-42
2023/03/29 06:57:04;;;;;;;4.60;2.50;;;8.80;99.90;;;;;;5017203;28;20186;-41
2023/03/29 06:59:33;;;;;;;3.67;1.83;;;8.90;99.90;;;;;;5026653;28;20281;-42
2023/03/29 07:02:17;;;;;;;3.37;1.73;;;9.00;99.90;;;;;;5035532;28;20190;-41
2023/03/29 07:04:47;;;;;;;2.00;1.80;;;9.00;99.90;;;;;;5039587;28;20194;-41
2023/03/29 07:07:53;;;;;;;3.53;1.70;;;9.10;99.90;;;;;;5029046;28;20261;-41
2023/03/29 07:10:38;;;;;;;3.80;1.93;;;9.20;99.90;;;;;;5019814;28;20263;-38
2023/03/29 07:13:29;;;;;;;1.97;1.60;;;9.30;99.90;;;;;;5024347;28;20178;-39
2023/03/29 07:16:02;;;;;;;1.27;1.00;;;9.30;99.90;;;;;;5032116;28;20163;-40
2023/03/29 07:19:00;;;;;;;4.20;1.53;;;9.40;99.90;;;;;;5018771;28;20189;-39
2023/03/29 07:21:50;;;;;;;1.40;1.30;;;9.50;99.90;;;;;;5045938;28;20263;-38
2023/03/29 07:24:18;;;;;;;2.03;1.40;;;9.50;99.90;;;;;;5035547;28;20195;-40
2023/03/29 07:26:47;;;;;;;2.53;1.20;;;9.60;99.90;;;;;;5002988;28;20186;-39
2023/03/29 07:29:14;;;;;;;2.43;1.47;;;9.70;99.90;;;;;;5015778;28;20209;-40
2023/03/29 07:31:40;;;;;;;2.03;1.37;;;9.70;99.90;;;;;;5018544;28;20179;-38
2023/03/29 07:34:31;;;;;;;2.03;1.30;;;9.70;99.90;;;;;;5004428;28;20183;-38
2023/03/29 07:36:59;;;;;;;1.70;1.50;;;9.80;99.90;;;;;;5031178;28;20190;-38
2023/03/29 07:39:26;;;;;;;2.20;1.23;;;9.80;99.90;;;;;;4999772;28;20217;-40
2023/03/29 07:42:17;;;;;;;2.53;1.40;;;9.80;99.90;;;;;;4999497;28;20278;-36
2023/03/29 07:44:43;;;;;;;1.70;1.40;;;9.80;99.90;;;;;;5012802;28;20206;-39
2023/03/29 07:47:09;;;;;;;2.67;1.40;;;9.90;99.90;;;;;;5012644;28;20187;-38
2023/03/29 07:49:37;;;;;;;1.40;1.30;;;9.90;99.90;;;;;;4998574;28;20171;-35
2023/03/29 07:52:06;;;;;;;3.00;1.60;;;9.90;99.90;;;;;;4999752;28;20258;-39
2023/03/29 07:54:37;;;;;;;1.77;1.27;;;10.00;99.90;;;;;;4999496;28;20297;-40
2023/03/29 07:57:34;;;;;;;1.40;1.20;;;10.00;99.90;;;;;;5026451;28;20213;-40
2023/03/29 08:00:14;;;;;;;1.60;1.50;;;10.10;99.90;;;;;;5032411;28;20183;-40
2023/03/29 08:02:48;;;;;;;2.40;1.60;;;10.10;99.90;;;;;;4987088;28;20273;-38
2023/03/29 08:05:16;;;;;;;1.67;1.43;;;10.20;99.90;;;;;;5005372;28;20805;-40
2023/03/29 08:07:50;;;;;;;2.70;1.70;;;10.20;99.90;;;;;;5015443;28;20207;-42
2023/03/29 08:10:35;;;;;;;2.13;1.47;;;10.30;99.90;;;;;;5018049;28;20221;-41
2023/03/29 08:13:20;;;;;;;1.87;1.37;;;10.30;99.90;;;;;;5032739;28;20165;-41
2023/03/29 08:16:04;;;;;;;1.70;1.60;;;10.30;99.90;;;;;;5033184;28;20237;-41
2023/03/29 08:18:36;;;;;;;3.13;1.40;;;10.30;99.90;;;;;;5016355;28;20198;-39
2023/03/29 08:21:03;;;;;;;4.47;1.50;;;10.40;99.90;;;;;;5032027;28;20229;-39
2023/03/29 08:23:29;;;;;;;1.57;1.10;;;10.40;99.90;;;;;;5015237;28;20225;-41
2023/03/29 08:26:15;;;;;;;1.47;1.37;;;10.40;99.90;;;;;;5017432;28;20207;-40
2023/03/29 08:28:42;;;;;;;2.00;1.80;;;10.40;99.90;;;;;;5012354;28;20281;-40
2023/03/29 08:31:09;;;;;;;4.80;3.37;;;10.40;99.90;;;;;;5011684;28;20174;-40
2023/03/29 08:33:38;;;;;;;3.37;2.13;;;10.50;99.90;;;;;;4996118;28;20639;-41
2023/03/29 08:36:26;;;;;;;2.80;1.70;;;10.50;99.90;;;;;;5015711;28;20183;-41
2023/03/29 08:38:55;;;;;;;3.40;1.90;;;10.60;99.90;;;;;;5014311;28;20249;-42
2023/03/29 08:41:34;;;;;;;2.53;1.73;;;10.60;99.90;;;;;;4993950;28;20199;-42
2023/03/29 08:44:14;;;;;;;2.13;1.80;;;10.70;99.90;;;;;;5002992;28;20174;-41
2023/03/29 08:47:52;;;;;;;4.50;1.80;;;10.80;99.90;;;;;;5013933;28;20191;-41
2023/03/29 08:50:22;;;;;;;1.90;1.50;;;10.90;99.90;;;;;;4945146;28;20177;-42
2023/03/29 08:52:56;;;;;;;4.37;2.10;;;11.00;99.90;;;;;;4997248;28;20171;-41
2023/03/29 08:55:45;;;;;;;5.13;2.07;;;11.00;99.90;;;;;;5009733;28;20652;-41
2023/03/29 08:58:33;;;;;;;2.37;1.77;;;11.10;99.90;;;;;;5030150;28;20243;-42
2023/03/29 09:01:02;;;;;;;3.10;1.70;;;11.10;99.90;;;;;;4996926;28;20282;-41
2023/03/29 09:03:44;;;;;;;2.83;1.47;;;11.20;99.90;;;;;;5012875;28;20175;-42
2023/03/29 09:06:19;;;;;;;2.90;1.77;;;11.20;99.90;;;;;;5015358;28;20291;-41
2023/03/29 09:08:47;;;;;;;4.80;2.07;;;11.30;99.90;;;;;;5017870;28;20209;-42
2023/03/29 09:11:20;;;;;;;3.10;2.00;;;11.30;99.90;;;;;;4996775;28;20185;-41
2023/03/29 09:13:49;;;;;;;2.53;1.83;;;11.40;99.90;;;;;;5029887;28;20176;-39
2023/03/29 09:16:31;;;;;;;3.40;1.83;;;11.50;99.90;;;;;;5013204;28;20274;-40
2023/03/29 09:19:13;;;;;;;2.33;1.53;;;11.60;99.90;;;;;;5013469;28;20237;-40
2023/03/29 09:21:54;;;;;;;2.93;1.83;;;11.70;99.90;;;;;;5012885;28;20196;-38
2023/03/29 09:24:39;;;;;;;2.70;2.17;;;11.80;99.90;;;;;;5012339;28;20178;-40
2023/03/29 09:27:13;;;;;;;2.27;1.73;;;11.90;99.90;;;;;;5026750;28;20187;-39
2023/03/29 09:29:57;;;;;;;5.10;3.00;;;12.00;99.90;;;;;;5009494;28;20184;-38
2023/03/29 09:32:51;;;;;;;5.10;2.43;;;12.10;99.90;;;;;;5015211;28;20178;-41
2023/03/29 09:35:39;;;;;;;5.67;3.03;;;12.30;99.90;;;;;;5028866;28;20250;-40
2023/03/29 09:38:11;;;;;;;3.60;2.30;;;12.40;99.90;;;;;;5012730;28;20282;-40
2023/03/29 09:40:41;;;;;;;4.70;2.10;;;12.40;99.90;;;;;;5012588;28;20177;-41
2023/03/29 09:43:25;;;;;;;2.93;1.80;;;12.50;99.90;;;;;;5012794;28;20239;-40
2023/03/29 09:45:56;;;;;;;3.10;1.97;;;12.60;99.90;;;;;;4996842;28;20222;-41
2023/03/29 09:48:23;;;;;;;6.10;2.73;;;12.80;99.90;;;;;;5016925;28;20281;-39
2023/03/29 09:50:54;;;;;;;3.57;2.57;;;12.90;99.90;;;;;;5013289;28;20180;-40
2023/03/29 09:53:21;;;;;;;3.00;1.97;;;13.10;99.90;;;;;;5012596;28;20182;-40
2023/03/29 09:56:15;;;;;;;3.23;1.83;;;13.30;99.90;;;;;;5013007;28;20194;-40
2023/03/29 09:58:57;;;;;;;3.50;1.90;;;13.50;99.90;;;;;;4998417;28;20202;-39
2023/03/29 10:01:24;;;;;;;6.30;2.00;;;13.70;99.90;;;;;;5008783;28;20187;-40
2023/03/29 10:03:52;;;;;;;2.30;1.80;;;13.90;99.90;;;;;;5003300;28;20178;-41
2023/03/29 10:06:22;;;;;;;2.53;1.70;;;14.00;99.90;;;;;;5001639;28;20206;-40
2023/03/29 10:08:55;;;;;;;4.20;1.90;;;14.30;99.90;;;;;;5012057;28;20233;-42
2023/03/29 10:11:29;;;;;;;6.10;2.40;;;14.50;99.90;;;;;;5026678;28;20174;-39
2023/03/29 10:14:01;;;;;;;3.33;1.90;;;14.70;99.90;;;;;;5030241;28;20178;-40
2023/03/29 10:16:37;;;;;;;1.90;1.50;;;14.70;99.90;;;;;;5014999;28;20274;-37
2023/03/29 10:19:33;;;;;;;2.47;1.50;;;14.70;99.90;;;;;;5015754;28;20206;-41
2023/03/29 10:22:07;;;;;;;2.93;1.93;;;14.60;99.90;;;;;;5022574;28;20281;-42
2023/03/29 10:24:33;;;;;;;1.70;1.50;;;14.70;99.90;;;;;;4999776;28;20205;-40
2023/03/29 10:27:08;;;;;;;3.80;1.63;;;14.70;99.90;;;;;;5016014;28;20182;-39
2023/03/29 10:29:41;;;;;;;3.07;1.97;;;14.70;99.90;;;;;;5024575;28;20166;-42
2023/03/29 10:32:15;;;;;;;2.63;1.53;;;14.70;99.90;;;;;;5015818;28;20179;-41
2023/03/29 10:34:42;;;;;;;2.73;1.63;;;14.70;99.90;;;;;;5016000;28;20177;-42
2023/03/29 10:37:11;;;;;;;3.50;1.50;;;14.60;99.90;;;;;;5029205;28;20182;-42
2023/03/29 10:39:39;;;;;;;1.80;1.40;;;14.60;99.90;;;;;;5012748;28;20183;-40
2023/03/29 10:42:07;;;;;;;4.07;1.53;;;14.60;99.90;;;;;;5012442;28;20192;-40
2023/03/29 10:44:36;;;;;;;4.47;1.70;;;14.50;99.90;;;;;;4998318;28;20210;-39
2023/03/29 10:47:16;;;;;;;2.47;1.30;;;14.60;99.90;;;;;;5033339;28;20210;-40
2023/03/29 10:49:48;;;;;;;2.33;1.17;;;14.60;99.90;;;;;;5032377;28;20236;-39
2023/03/29 10:52:16;;;;;;;3.27;1.30;;;14.60;99.90;;;;;;5031688;28;20189;-40
2023/03/29 10:54:42;;;;;;;1.00;1.00;;;14.60;99.90;;;;;;5018562;28;20250;-40
2023/03/29 10:57:16;;;;;;;2.07;1.13;;;14.60;99.90;;;;;;5033172;28;20193;-41
2023/03/29 11:00:15;;;;;;;2.03;1.17;;;14.50;99.90;;;;;;5031524;28;20187;-39
2023/03/29 11:03:02;;;;;;;1.40;1.20;;;14.50;99.90;;;;;;4958769;28;20221;-38
2023/03/29 11:05:57;;;;;;;2.10;1.50;;;14.50;99.90;;;;;;5016508;28;20301;-40
2023/03/29 11:08:49;;;;;;;2.63;1.43;;;14.50;99.90;;;;;;5015429;28;20260;-40
2023/03/29 11:11:26;;;;;;;2.47;1.40;;;14.50;99.90;;;;;;5015683;28;20184;-40
2023/03/29 11:14:01;;;;;;;1.60;1.20;;;14.60;99.90;;;;;;5027759;28;20187;-41
2023/03/29 11:16:56;;;;;;;3.57;1.33;;;14.60;99.90;;;;;;5021537;28;20187;-40
2023/03/29 11:19:41;;;;;;;5.20;1.50;;;14.70;99.90;;;;;;5015920;28;20218;-39
2023/03/29 11:22:20;;;;;;;1.20;1.10;;;14.70;99.90;;;;;;5031864;28;20192;-41
2023/03/29 11:25:25;;;;;;;2.43;1.40;;;14.70;99.90;;;;;;5024452;28;20237;-40
2023/03/29 11:28:18;;;;;;;2.03;1.10;;;14.70;99.90;;;;;;5009582;28;20198;-39
2023/03/29 11:31:00;;;;;;;1.43;1.20;;;14.60;99.90;;;;;;5031571;28;20264;-41
2023/03/29 11:33:29;;;;;;;1.40;1.17;;;14.60;99.90;;;;;;5003877;28;20187;-41
2023/03/29 11:36:04;;;;;;;2.07;1.20;;;14.70;99.90;;;;;;5020754;28;20202;-41
2023/03/29 11:38:57;;;;;;;1.40;1.03;;;14.80;99.90;;;;;;5014394;28;20698;-38
2023/03/29 11:41:33;;;;;;;1.63;1.20;;;14.80;99.90;;;;;;5031780;28;20182;-41
2023/03/29 11:44:09;;;;;;;2.13;1.40;;;14.80;99.90;;;;;;5009743;28;20182;-39
2023/03/29 11:46:45;;;;;;;3.43;1.60;;;14.90;99.90;;;;;;5029250;28;20207;-40
2023/03/29 11:49:24;;;;;;;1.30;1.20;;;15.00;99.90;;;;;;5032345;28;20195;-41
2023/03/29 11:52:04;;;;;;;1.40;1.27;;;15.10;99.90;;;;;;5013891;28;20190;-41
2023/03/29 11:54:38;;;;;;;1.57;1.20;;;15.10;99.90;;;;;;5013841;28;20181;-39
2023/03/29 11:57:13;;;;;;;2.00;0.93;;;15.10;99.90;;;;;;5012933;28;20192;-41
2023/03/29 12:00:00;;;;;;;2.00;1.00;;;15.20;99.90;;;;;;5014221;28;20301;-42
2023/03/29 12:02:43;;;;;;;2.53;1.00;;;15.30;99.90;;;;;;5027926;28;20178;-41
2023/03/29 12:05:47;;;;;;;2.70;1.17;;;15.30;99.90;;;;;;5030084;28;20296;-42
2023/03/29 12:08:38;;;;;;;1.17;0.90;;;15.40;99.90;;;;;;5027665;28;20195;-42
2023/03/29 12:11:23;;;;;;;3.20;1.20;;;15.30;99.90;;;;;;5033482;28;20190;-42
2023/03/29 12:13:56;;;;;;;1.37;1.07;;;15.20;99.90;;;;;;5014120;28;20182;-42
2023/03/29 12:16:50;;;;;;;1.57;1.00;;;15.10;99.90;;;;;;5013709;28;20187;-42
2023/03/29 12:19:24;;;;;;;1.87;1.00;;;15.00;99.90;;;;;;5013388;28;20359;-42
2023/03/29 12:21:54;;;;;;;1.97;0.97;;;14.90;99.90;;;;;;5015638;28;20187;-42
2023/03/29 12:24:21;;;;;;;2.00;1.20;;;14.80;99.90;;;;;;4996960;28;20179;-42
2023/03/29 12:27:07;;;;;;;1.93;1.03;;;14.80;99.90;;;;;;5025156;28;20211;-42
2023/03/29 12:30:02;;;;;;;3.97;1.07;;;14.70;99.90;;;;;;5013496;28;20273;-41
2023/03/29 12:32:36;;;;;;;1.80;1.00;;;14.80;99.90;;;;;;5006011;28;20278;-40
2023/03/29 12:35:29;;;;;;;1.47;1.10;;;14.80;99.90;;;;;;5002341;28;20187;-42
2023/03/29 12:38:29;;;;;;;2.50;1.00;;;14.80;99.90;;;;;;5003439;28;20207;-42
2023/03/29 12:41:20;;;;;;;3.63;1.30;;;14.90;99.90;;;;;;5018657;28;20182;-39
2023/03/29 12:44:16;;;;;;;2.40;1.30;;;14.90;99.90;;;;;;5017626;28;20182;-40
2023/03/29 12:46:53;;;;;;;5.20;1.60;;;14.90;99.90;;;;;;5019987;28;20182;-41
2023/03/29 12:49:37;;;;;;;3.77;1.67;;;15.00;99.90;;;;;;5018608;28;20229;-41
2023/03/29 12:52:31;;;;;;;3.47;1.37;;;15.00;99.90;;;;;;5028363;28;20179;-40
2023/03/29 12:55:15;;;;;;;1.27;1.10;;;15.10;99.90;;;;;;5025796;28;20186;-42
2023/03/29 12:58:04;;;;;;;2.00;1.03;;;15.20;99.90;;;;;;5030978;28;20213;-39
2023/03/29 13:00:35;;;;;;;2.27;1.50;;;15.30;99.90;;;;;;5026402;28;20205;-40
2023/03/29 13:03:33;;;;;;;1.63;1.00;;;15.50;99.90;;;;;;5028635;28;20182;-41
2023/03/29 13:06:08;;;;;;;24.50;15.57;;;15.80;99.90;;;;;;4967650;28;20219;-41
2023/03/29 13:08:41;;;;;;;4.13;2.00;;;16.00;99.90;;;;;;5012864;28;20219;-41
2023/03/29 13:11:34;;;;;;;4.53;3.00;;;16.20;99.90;;;;;;5031207;28;20186;-41
2023/03/29 13:14:12;;;;;;;1.70;1.20;;;16.30;99.90;;;;;;5011636;28;20246;-40
2023/03/29 13:16:39;;;;;;;5.97;3.70;;;16.30;99.90;;;;;;5010982;28;20175;-40
2023/03/29 13:19:15;;;;;;;6.10;3.63;;;16.20;99.90;;;;;;4996815;28;20198;-41
2023/03/29 13:21:51;;;;;;;2.27;1.83;;;16.10;99.90;;;;;;5024549;28;20190;-42
2023/03/29 13:24:48;;;;;;;2.77;1.23;;;16.10;99.90;;;;;;5004924;28;20186;-42
2023/03/29 13:27:35;;;;;;;2.07;1.40;;;16.00;99.90;;;;;;5024911;28;20210;-41
2023/03/29 13:30:24;;;;;;;2.07;1.17;;;16.00;99.90;;;;;;5011971;28;20214;-42
2023/03/29 13:33:09;;;;;;;2.00;1.00;;;15.90;99.90;;;;;;5020457;28;20186;-41
2023/03/29 13:36:10;;;;;;;3.30;1.10;;;15.80;99.90;;;;;;5009143;28;20181;-41
2023/03/29 13:38:48;;;;;;;3.70;1.23;;;15.70;99.90;;;;;;4995646;28;20210;-40